PWSweather.com
Personal Weather Stations
Station Observations
KTXPLANO60
Highlands Of Russell Park, Plano, TX 75025

Highlands Of Russell ParkPlano, TX 75025

Lat: 33.10431671, Lon: -96.75176239

Elevation: 761

Station Type: Davis Wireless VP2 Plus

http://www.planoweather.com

Latest ConditionsUpdated 9:10:02 AM CDT Monday, Jun 17, 2019
Currently Today's Max Today's Min Today's Average
Temperature 68.8°F20.4°C 68.8°F20.4°C 65.2°F18.4°C 66.0°F18.9°C
Dew Point 66.1°F18.9°C 66.2°F19.0°C 62.8°F17.1°C 63.6°F17.6°C
Winds Calm Calm 5.8 mph -9.3 kmh - - 1.7 mph 2.7 kmh
Wind Gusts 1.2 mph1.9 kmh 10.4 mph16.7 kmh - -
Humidity 91% 92% 91% 92%
Pressure 29.87 in1011.5 mb 29.87 in1011.5 mb 29.78 in1008.5 mb -
Precipitation - 0.01 in0.3 mm - -
Hour Temp Dew Point Humidity Winds Wind Gusts Pressure Precip Precip Rate Daily Precip Total
09:10 AM 68.8°F20.4°C 66.1°F18.9°C 91% Calm Calm 1.2 mph1.9 kmh 29.87 in1011.5 mb - 0.00 in0.0 mm 0.01 in0.3 mm
09:00 AM 68.6°F20.3°C 66.2°F19.0°C 92% 1.2 mph E1.9 kmh E 2.3 mph3.7 kmh 29.87 in1011.5 mb - 0.00 in0.0 mm 0.01 in0.3 mm
08:50 AM 67.9°F19.9°C 65.5°F18.6°C 92% 2.3 mph E3.7 kmh E 3.5 mph5.6 kmh 29.86 in1011.2 mb - 0.00 in0.0 mm 0.01 in0.3 mm
08:40 AM 67.3°F19.6°C 64.9°F18.3°C 92% 1.2 mph E1.9 kmh E 2.3 mph3.7 kmh 29.86 in1011.2 mb - 0.00 in0.0 mm 0.01 in0.3 mm
08:30 AM 67.0°F19.4°C 64.6°F18.1°C 92% 3.5 mph ESE5.6 kmh ESE 5.8 mph9.3 kmh 29.86 in1011.2 mb - 0.00 in0.0 mm 0.01 in0.3 mm
08:20 AM 66.8°F19.3°C 64.4°F18.0°C 92% 3.5 mph ESE5.6 kmh ESE 5.8 mph9.3 kmh 29.86 in1011.2 mb - 0.00 in0.0 mm 0.01 in0.3 mm
08:10 AM 66.6°F19.2°C 64.2°F17.9°C 92% 3.5 mph E5.6 kmh E 4.6 mph7.4 kmh 29.86 in1011.2 mb - 0.00 in0.0 mm 0.01 in0.3 mm
08:00 AM 66.5°F19.2°C 64.1°F17.8°C 92% 4.6 mph ESE7.4 kmh ESE 5.8 mph9.3 kmh 29.85 in1010.8 mb - 0.00 in0.0 mm 0.01 in0.3 mm
07:50 AM 66.3°F19.1°C 63.9°F17.7°C 92% 2.3 mph E3.7 kmh E 3.5 mph5.6 kmh 29.85 in1010.8 mb - 0.00 in0.0 mm 0.01 in0.3 mm
07:40 AM 66.1°F18.9°C 63.7°F17.6°C 92% 2.3 mph ESE3.7 kmh ESE 4.6 mph7.4 kmh 29.84 in1010.5 mb - 0.00 in0.0 mm 0.01 in0.3 mm
07:30 AM 65.9°F18.8°C 63.5°F17.5°C 92% Calm Calm -- 29.83 in1010.2 mb - 0.00 in0.0 mm 0.01 in0.3 mm
07:20 AM 65.6°F18.7°C 63.2°F17.3°C 92% Calm Calm -- 29.83 in1010.2 mb - 0.00 in0.0 mm 0.01 in0.3 mm
07:10 AM 65.5°F18.6°C 63.1°F17.3°C 92% Calm Calm -- 29.82 in1009.8 mb - 0.00 in0.0 mm 0.01 in0.3 mm
07:00 AM 65.3°F18.5°C 62.9°F17.2°C 92% Calm Calm -- 29.82 in1009.8 mb - 0.00 in0.0 mm 0.01 in0.3 mm
06:50 AM 65.2°F18.4°C 62.8°F17.1°C 92% Calm Calm -- 29.82 in1009.8 mb - 0.00 in0.0 mm 0.01 in0.3 mm
06:40 AM 65.3°F18.5°C 62.9°F17.2°C 92% Calm Calm -- 29.82 in1009.8 mb - 0.00 in0.0 mm 0.01 in0.3 mm
06:30 AM 65.3°F18.5°C 63.0°F17.2°C 92% Calm Calm -- 29.82 in1009.8 mb - 0.00 in0.0 mm 0.01 in0.3 mm
06:20 AM 65.4°F18.6°C 63.0°F17.2°C 92% Calm Calm -- 29.82 in1009.8 mb - 0.00 in0.0 mm 0.01 in0.3 mm
06:10 AM 65.3°F18.5°C 62.9°F17.2°C 92% Calm Calm -- 29.82 in1009.8 mb - 0.00 in0.0 mm 0.01 in0.3 mm
06:00 AM 65.2°F18.4°C 62.8°F17.1°C 92% Calm Calm -- 29.82 in1009.8 mb - 0.00 in0.0 mm 0.01 in0.3 mm
05:50 AM 65.2°F18.4°C 62.8°F17.1°C 92% 1.2 mph SW1.9 kmh SW 2.3 mph3.7 kmh 29.81 in1009.5 mb - 0.00 in0.0 mm 0.01 in0.3 mm
05:40 AM 65.4°F18.6°C 63.0°F17.2°C 92% Calm Calm -- 29.81 in1009.5 mb - 0.00 in0.0 mm 0.01 in0.3 mm
05:30 AM 65.6°F18.7°C 63.2°F17.3°C 92% Calm Calm -- 29.81 in1009.5 mb - 0.00 in0.0 mm 0.01 in0.3 mm
05:20 AM 65.4°F18.6°C 63.0°F17.2°C 92% Calm Calm -- 29.82 in1009.8 mb - 0.00 in0.0 mm 0.01 in0.3 mm
05:10 AM 65.4°F18.6°C 63.0°F17.2°C 92% Calm Calm -- 29.80 in1009.1 mb - 0.00 in0.0 mm 0.01 in0.3 mm
05:00 AM 65.4°F18.6°C 63.0°F17.2°C 92% Calm Calm -- 29.80 in1009.1 mb - 0.00 in0.0 mm 0.01 in0.3 mm
04:50 AM 65.5°F18.6°C 63.1°F17.3°C 92% Calm Calm 3.5 mph5.6 kmh 29.79 in1008.8 mb - 0.01 in0.3 mm 0.01 in0.3 mm
04:40 AM 65.5°F18.6°C 63.1°F17.3°C 92% 2.3 mph SW3.7 kmh SW 3.5 mph5.6 kmh 29.79 in1008.8 mb - 0.01 in0.3 mm 0.01 in0.3 mm
04:30 AM 65.6°F18.7°C 63.2°F17.3°C 92% 1.2 mph W1.9 kmh W 2.3 mph3.7 kmh 29.79 in1008.8 mb - 0.01 in0.3 mm 0.01 in0.3 mm
04:20 AM 65.7°F18.7°C 63.3°F17.4°C 92% 1.2 mph W1.9 kmh W 2.3 mph3.7 kmh 29.79 in1008.8 mb - 0.01 in0.3 mm 0.01 in0.3 mm
04:10 AM 65.7°F18.7°C 63.3°F17.4°C 92% Calm Calm -- 29.80 in1009.1 mb - 0.01 in0.3 mm 0.01 in0.3 mm
04:00 AM 65.7°F18.7°C 63.3°F17.4°C 92% 2.3 mph W3.7 kmh W 3.5 mph5.6 kmh 29.80 in1009.1 mb - 0.01 in0.3 mm 0.01 in0.3 mm
03:50 AM 65.7°F18.7°C 63.3°F17.4°C 92% 2.3 mph W3.7 kmh W 4.6 mph7.4 kmh 29.79 in1008.8 mb - 0.00 in0.0 mm 0.00 in0.0 mm
03:40 AM 65.7°F18.7°C 63.3°F17.4°C 92% 2.3 mph SW3.7 kmh SW 3.5 mph5.6 kmh 29.79 in1008.8 mb - 0.00 in0.0 mm 0.00 in0.0 mm
03:30 AM 65.6°F18.7°C 63.2°F17.3°C 92% 1.2 mph SW1.9 kmh SW 3.5 mph5.6 kmh 29.79 in1008.8 mb - 0.00 in0.0 mm 0.00 in0.0 mm
03:20 AM 65.7°F18.7°C 63.3°F17.4°C 92% 1.2 mph SSE1.9 kmh SSE 4.6 mph7.4 kmh 29.79 in1008.8 mb - 0.00 in0.0 mm 0.00 in0.0 mm
03:10 AM 65.7°F18.7°C 63.3°F17.4°C 92% 3.5 mph S5.6 kmh S 3.5 mph5.6 kmh 29.80 in1009.1 mb - 0.00 in0.0 mm 0.00 in0.0 mm
03:00 AM 65.7°F18.7°C 63.3°F17.4°C 92% 3.5 mph SSW5.6 kmh SSW 4.6 mph7.4 kmh 29.81 in1009.5 mb - 0.00 in0.0 mm 0.00 in0.0 mm
02:50 AM 65.8°F18.8°C 63.4°F17.4°C 92% 2.3 mph SSW3.7 kmh SSW 3.5 mph5.6 kmh 29.82 in1009.8 mb - 0.00 in0.0 mm 0.00 in0.0 mm
02:40 AM 65.9°F18.8°C 63.5°F17.5°C 92% 1.2 mph SSW1.9 kmh SSW 2.3 mph3.7 kmh 29.82 in1009.8 mb - 0.00 in0.0 mm 0.00 in0.0 mm
02:30 AM 65.9°F18.8°C 63.5°F17.5°C 92% 1.2 mph SSW1.9 kmh SSW 3.5 mph5.6 kmh 29.82 in1009.8 mb - 0.00 in0.0 mm 0.00 in0.0 mm
02:20 AM 66.0°F18.9°C 63.6°F17.6°C 92% 1.2 mph SSW1.9 kmh SSW 2.3 mph3.7 kmh 29.82 in1009.8 mb - 0.00 in0.0 mm 0.00 in0.0 mm
02:10 AM 66.0°F18.9°C 63.6°F17.6°C 92% 2.3 mph SSW3.7 kmh SSW 3.5 mph5.6 kmh 29.82 in1009.8 mb - 0.00 in0.0 mm 0.00 in0.0 mm
02:00 AM 66.1°F18.9°C 63.7°F17.6°C 92% 1.2 mph SSW1.9 kmh SSW 2.3 mph3.7 kmh 29.82 in1009.8 mb - 0.00 in0.0 mm 0.00 in0.0 mm
01:50 AM 66.1°F18.9°C 63.7°F17.6°C 92% 1.2 mph SW1.9 kmh SW 3.5 mph5.6 kmh 29.83 in1010.2 mb - 0.00 in0.0 mm 0.00 in0.0 mm
01:40 AM 66.1°F18.9°C 63.7°F17.6°C 92% 1.2 mph SW1.9 kmh SW 4.6 mph7.4 kmh 29.82 in1009.8 mb - 0.00 in0.0 mm 0.00 in0.0 mm
01:30 AM 66.1°F18.9°C 63.7°F17.6°C 92% 2.3 mph SW3.7 kmh SW 4.6 mph7.4 kmh 29.82 in1009.8 mb - 0.00 in0.0 mm 0.00 in0.0 mm
01:20 AM 66.2°F19.0°C 63.5°F17.5°C 91% 2.3 mph WSW3.7 kmh WSW 3.5 mph5.6 kmh 29.82 in1009.8 mb - 0.00 in0.0 mm 0.00 in0.0 mm
01:10 AM 66.2°F19.0°C 63.5°F17.5°C 91% 3.5 mph SSW5.6 kmh SSW 4.6 mph7.4 kmh 29.82 in1009.8 mb - 0.00 in0.0 mm 0.00 in0.0 mm
01:00 AM 66.2°F19.0°C 63.5°F17.5°C 91% Calm Calm 1.2 mph1.9 kmh 29.81 in1009.5 mb - 0.00 in0.0 mm 0.00 in0.0 mm
12:50 AM 66.1°F18.9°C 63.4°F17.4°C 91% 2.3 mph SSW3.7 kmh SSW 3.5 mph5.6 kmh 29.81 in1009.5 mb - 0.00 in0.0 mm 0.00 in0.0 mm
12:40 AM 66.2°F19.0°C 63.5°F17.5°C 91% 4.6 mph SSW7.4 kmh SSW 5.8 mph9.3 kmh 29.80 in1009.1 mb - 0.00 in0.0 mm 0.00 in0.0 mm
12:30 AM 66.2°F19.0°C 63.5°F17.5°C 91% 5.8 mph S9.3 kmh S 10.4 mph16.7 kmh 29.81 in1009.5 mb - 0.00 in0.0 mm 0.00 in0.0 mm
12:20 AM 66.3°F19.1°C 63.9°F17.7°C 92% 4.6 mph SSE7.4 kmh SSE 6.9 mph11.1 kmh 29.80 in1009.1 mb - 0.00 in0.0 mm 0.00 in0.0 mm
12:10 AM 66.4°F19.1°C 64.0°F17.8°C 92% 4.6 mph SSE7.4 kmh SSE 5.8 mph9.3 kmh 29.79 in1008.8 mb - 0.00 in0.0 mm 0.00 in0.0 mm
12:00 AM 66.4°F19.1°C 64.0°F17.8°C 92% 5.8 mph S9.3 kmh S 6.9 mph11.1 kmh 29.78 in1008.5 mb - 0.00 in0.0 mm 0.00 in0.0 mm